Sligo Airport - TAF
(Terminal Area Forecast)

Issued at 03:36 UTC on Fri. 24-Feb-17

--- METARS(SA) ---

METAR EISG(SLIGO) 240330Z AUTO 33011KT 9999 FEW039 SCT050 06/02

Q1014 =

--- TAFS() ---

TAF EISG(SLIGO) 240200Z 2403/2412 31015KT 9999 FEW020 SCT025 BECMG

2403/2406 24010KT BECMG 2406/2409 20010KT PROB30 TEMPO 2407/2412 7000

-RA BKN014 =

--- SIGMETS(WS) ---

IE - No VALID SIGMETS/Warnings FOR THIS AREA

--- SIGMETS Volcanic(WV) ---

IE - No VALID SIGMETS/Warnings FOR THIS AREA

--- SIGMETS(WS) ---

UK - No VALID SIGMETS/Warnings FOR THIS AREA

Sligo Airport - METARs

Latest METARs for Sligo and Donegal Airports - updated every 30 mins